Urb Panorama Village, Puerto Rico
Current Conditions -  °F | °C
As of 11:56 AM on Monday 24 Nov 2014 (Local Time) from TJSJ Reporting Station
Light Rain Light Rain  
Wind Chill: 82°   Ceiling: 4500
Heat Index: 91°   Visibility: 7mi
Dew Point: 78°   Wind: 24mph
Humidity: 88%   Direction: 70°ENE
Pressure: 30.05"   Gusts: 28mph
Location:  18.1783°N, 66.1111°W
Report Text: TJSJ 241556Z 07021G24KT 7SM -RA SCT025 SCT032 BKN045 28/26 A3005 RMK AO2 PK WND 05026/1537 RAB39 SLP176 P0000 T02780256
Loading
Personal Weather Stations






























Interactive Weather Map New forecast layout! Learn more

10-Day Weather Forecast

Advertisements
Track Severe Weather on mobile